Groningen Airport Eelde

EHGG · Drenthe, Netherlands

METAR history EHGG · Groningen Airport Eelde

Below you see METARs of the last few days. Select a year to browse through older METARs, from the year 2007 onwards.

February 27, 2024

Time Code Weather Temp. Visibility Ceiling Wind METAR/SPECI
06:25
M
3 °C 10 km+ 1,600 ft 010° 010° 6 kt METAR EHGG 270525Z AUTO 01006KT 340V040 9999 SCT014 BKN016 03/02 Q1018 BECMG BKN008 TEMPO 9999 NSW
05:55
V
2 °C 10 km+ - 010° 010° 4 kt METAR EHGG 270455Z AUTO 01004KT 9999 R05/0900D FEW012 02/01 Q1018
05:25
M
1 °C 7 km - 350° 350° 5 kt METAR EHGG 270425Z AUTO 35005KT 7000 NCD 01/01 Q1018
04:55
V
2 °C 9 km - 360° 360° 5 kt METAR EHGG 270355Z AUTO 36005KT 9000 NCD 02/01 Q1018
04:25
V
2 °C 9 km - 010° 010° 4 kt METAR EHGG 270325Z AUTO 01004KT 9000 NCD 02/01 Q1017
03:55
V
1 °C 10 km+ - 360° 360° 4 kt METAR EHGG 270255Z AUTO 36004KT 9999 NCD 01/01 Q1017
03:25
V
3 °C 10 km+ - 020° 020° 5 kt METAR EHGG 270225Z AUTO 02005KT 340V050 9999 NCD 03/01 Q1017
02:55
V
3 °C 10 km+ - 020° 020° 5 kt METAR EHGG 270155Z AUTO 02005KT 9999 NCD 03/02 Q1017
02:25
V
3 °C 10 km+ - 020° 020° 6 kt METAR EHGG 270125Z AUTO 02006KT 340V040 9999 NCD 03/02 Q1017
01:55
V
3 °C 10 km+ - 010° 010° 7 kt METAR EHGG 270055Z AUTO 01007KT 340V040 9999 NCD 03/02 Q1017
01:25
V
3 °C 10 km+ - 020° 020° 5 kt METAR EHGG 270025Z AUTO 02005KT 350V050 9999 NCD 03/01 Q1017
00:55
V
3 °C 10 km+ - 020° 020° 4 kt METAR EHGG 262355Z AUTO 02004KT 9999 NCD 03/01 Q1017
00:25
V
3 °C 10 km+ - 030° 030° 5 kt METAR EHGG 262325Z AUTO 03005KT 9999 NCD 03/01 Q1016

February 26, 2024

Time Code Weather Temp. Visibility Ceiling Wind METAR/SPECI
23:55
V
3 °C 10 km+ - 030° 030° 6 kt METAR EHGG 262255Z AUTO 03006KT 9999 NCD 03/01 Q1016
23:25
V
3 °C 10 km+ - 020° 020° 6 kt METAR EHGG 262225Z AUTO 02006KT 350V050 9999 NCD 03/01 Q1016
22:55
V
4 °C 10 km+ - 020° 020° 6 kt METAR EHGG 262155Z AUTO 02006KT 340V050 9999 NSC 04/01 Q1016
22:25
V
4 °C 10 km+ - 030° 030° 7 kt METAR EHGG 262125Z AUTO 03007KT 350V060 9999 NSC 04/01 Q1015 NOSIG
21:55
V
4 °C 10 km+ - 020° 020° 8 kt METAR EHGG 262055Z AUTO 02008KT 340V060 9999 NSC 04/01 Q1015 NOSIG
21:25
V
4 °C 10 km+ - 020° 020° 7 kt METAR EHGG 262025Z AUTO 02007KT 340V060 9999 NSC 04/01 Q1015 NOSIG
20:55
V
4 °C 10 km+ - 030° 030° 8 kt METAR EHGG 261955Z AUTO 03008KT 350V060 9999 NSC 04/02 Q1014 NOSIG
20:25
V
4 °C 10 km+ - 030° 030° 9 kt METAR EHGG 261925Z AUTO 03009KT 340V090 9999 NSC 04/02 Q1014 NOSIG
19:55
V
4 °C 10 km+ - 030° 030° 9 kt METAR EHGG 261855Z AUTO 03009KT 350V060 9999 NSC 04/02 Q1014 NOSIG
19:25
V
4 °C 10 km+ - 030° 030° 11 kt METAR EHGG 261825Z AUTO 03011KT 350V050 9999 NSC 04/02 Q1013 NOSIG
18:55
V
4 °C 10 km+ - 030° 030° 11 kt METAR EHGG 261755Z AUTO 03011KT 350V060 9999 NSC 04/02 Q1013 NOSIG
18:25
V
4 °C 10 km+ - 030° 030° 12 kt METAR EHGG 261725Z AUTO 03012KT 350V060 9999 NSC 04/02 Q1012 NOSIG
17:55
V
5 °C 10 km+ - 030° 030° 13 kt METAR EHGG 261655Z AUTO 03013KT 350V060 9999 FEW014/// 05/02 Q1012 TEMPO BKN018
17:25
M
5 °C 10 km+ 1,400 ft 030° 030° 13 kt METAR EHGG 261625Z AUTO 03013KT 360V060 9999 BKN014 05/02 Q1011 TEMPO BKN018
16:55
V
5 °C 10 km+ - 030° 030° 13 kt METAR EHGG 261555Z AUTO 03013KT 360V060 9999 SCT013/// 05/02 Q1011 TEMPO BKN018
16:25
M
5 °C 10 km+ 1,300 ft 040° 040° 13 kt METAR EHGG 261525Z AUTO 04013KT 010V070 9999 BKN013 05/02 Q1010 TEMPO BKN018
15:55
M
5 °C 10 km+ 1,300 ft 030° 030° 15 kt METAR EHGG 261455Z AUTO 03015KT 010V090 9999 BKN013/// BKN016/// 05/02 Q1010 TEMPO BKN018
15:25
M
5 °C 10 km+ 1,200 ft 040° 040° 13 kt METAR EHGG 261425Z AUTO 04013KT 360V080 9999 BKN012 BKN014 05/02 Q1010 TEMPO BKN018
14:55
M
5 °C 10 km+ 1,100 ft 030° 030° 12 kt METAR EHGG 261355Z AUTO 03012KT 360V060 9999 BKN011 BKN013 05/02 Q1009 TEMPO BKN016
14:25
M
5 °C 10 km+ 1,100 ft 030° 030° 14 kt METAR EHGG 261325Z AUTO 03014KT 350V060 9999 OVC011 05/02 Q1009 TEMPO BKN016
13:55
M
5 °C 10 km+ 1,200 ft 030° 030° 13 kt METAR EHGG 261255Z AUTO 03013KT 360V080 9999 BKN012 05/02 Q1009 TEMPO BKN016
13:25
M
6 °C 10 km+ 1,500 ft 030° 030° 13 kt METAR EHGG 261225Z AUTO 03013KT 360V060 9999 SCT013 BKN015 06/02 Q1008 TEMPO BKN013
12:55
M
6 °C 10 km+ 1,400 ft 040° 040° 14 kt METAR EHGG 261155Z AUTO 04014KT 360V060 9999 BKN014 06/02 Q1008 TEMPO BKN016
12:25
M
5 °C 10 km+ 1,300 ft 040° 040° 12 kt METAR EHGG 261125Z AUTO 04012KT 020V080 9999 BKN013 OVC016 05/02 Q1008 TEMPO BKN016
11:55
M
5 °C 10 km+ 1,400 ft 040° 040° 14 kt METAR EHGG 261055Z AUTO 04014KT 010V070 9999 BKN014 OVC016 05/02 Q1008 TEMPO BKN016
11:25
M
5 °C 10 km+ 1,400 ft 040° 040° 14 kt METAR EHGG 261025Z AUTO 04014KT 010V070 9999 OVC014 05/02 Q1008 TEMPO BKN018
10:55
M
5 °C 10 km+ 1,200 ft 040° 040° 11 kt METAR EHGG 260955Z AUTO 04011KT 010V090 9999 BKN012 OVC014 05/02 Q1007 TEMPO BKN018
10:25
V
4 °C 10 km+ - 040° 040° 11 kt METAR EHGG 260925Z AUTO 04011KT 010V070 9999 FEW013 04/02 Q1007 NOSIG
09:55
V
4 °C 10 km+ - 030° 030° 11 kt METAR EHGG 260855Z AUTO 03011KT 360V080 9999 NSC 04/02 Q1006 NOSIG
09:25
V
4 °C 10 km+ - 040° 040° 11 kt METAR EHGG 260825Z AUTO 04011KT 9999 NSC 04/02 Q1006 TEMPO BKN014
08:55
M
4 °C 10 km+ 1,400 ft 050° 050° 9 kt METAR EHGG 260755Z AUTO 05009KT 9999 FEW011 BKN014 04/02 Q1006 TEMPO NSC
08:25
M
4 °C 10 km+ 1,300 ft 040° 040° 11 kt METAR EHGG 260725Z AUTO 04011KT 010V070 9999 BKN013/// 04/02 Q1006 TEMPO NSC
07:55
V
4 °C 10 km+ - 040° 040° 10 kt METAR EHGG 260655Z AUTO 04010KT 9999 NSC 04/02 Q1005 NOSIG
07:25
V
4 °C 10 km+ - 040° 040° 10 kt METAR EHGG 260625Z AUTO 04010KT 010V070 9999 NSC 04/02 Q1005 NOSIG
06:55
V
4 °C 10 km+ - 040° 040° 9 kt METAR EHGG 260555Z AUTO 04009KT 010V070 9999 NSC 04/02 Q1005 NOSIG
06:25
V
3 °C 10 km+ - 050° 050° 9 kt METAR EHGG 260525Z AUTO 05009KT 020V080 9999 NSC 03/02 Q1004 NOSIG
05:55
V
3 °C 10 km+ - 040° 040° 10 kt METAR EHGG 260455Z AUTO 04010KT 360V070 9999 NSC 03/02 Q1004
05:25
V
3 °C 10 km+ - 040° 040° 10 kt METAR EHGG 260425Z AUTO 04010KT 010V070 9999 NSC 03/02 Q1004
04:55
V
3 °C 10 km+ - 030° 030° 10 kt METAR EHGG 260355Z AUTO 03010KT 9999 NSC 03/02 Q1003
04:25
V
3 °C 10 km+ 4,400 ft 050° 050° 7 kt METAR EHGG 260325Z AUTO 05007KT 9999 OVC044/// 03/02 Q1003
03:55
V
3 °C 10 km+ - 040° 040° 8 kt METAR EHGG 260255Z AUTO 04008KT 9999 NSC 03/02 Q1003
03:25
V
3 °C 9 km - 040° 040° 8 kt METAR EHGG 260225Z AUTO 04008KT 9000 NSC 03/02 Q1003
02:55
V
3 °C 9 km - 040° 040° 9 kt METAR EHGG 260155Z AUTO 04009KT 010V070 9000 NSC 03/02 Q1003
02:25
V
3 °C 8 km - 050° 050° 9 kt METAR EHGG 260125Z AUTO 05009KT 8000 NSC 03/03 Q1002
01:55
M
3 °C 7 km - 040° 040° 7 kt METAR EHGG 260055Z AUTO 04007KT 010V070 7000 NSC 03/03 Q1002
01:25
M
3 °C 6 km 3,400 ft 060° 060° 7 kt METAR EHGG 260025Z AUTO 06007KT 6000 BKN034/// 03/02 Q1002
00:55
V
3 °C 9 km - 050° 050° 6 kt METAR EHGG 252355Z AUTO 05006KT 9000 NSC 03/02 Q1002
00:25
M
2 °C 6 km - 050° 050° 4 kt METAR EHGG 252325Z AUTO 05004KT 6000 NSC 02/02 Q1002

February 25, 2024

Time Code Weather Temp. Visibility Ceiling Wind METAR/SPECI
23:55
M
2 °C 6 km - 050° 050° 5 kt METAR EHGG 252255Z AUTO 05005KT 6000 NSC 02/02 Q1002
23:25
M
2 °C 7 km - 060° 060° 4 kt METAR EHGG 252225Z AUTO 06004KT 7000 NSC 02/02 Q1002
22:55
V
2 °C 9 km - 060° 060° 5 kt METAR EHGG 252155Z AUTO 06005KT 9000 NSC 02/01 Q1002 TEMPO 4000 BR
22:25
V
3 °C 8 km - 070° 070° 4 kt METAR EHGG 252125Z AUTO 07004KT 050V110 8000 NSC 03/02 Q1002 TEMPO 4000 BR
21:55
M
3 °C 7 km - 050° 050° 4 kt METAR EHGG 252055Z AUTO 05004KT 7000 NSC 03/03 Q1002 TEMPO 4000 BR
21:25
M
3 °C 6 km 2,600 ft 050° 050° 5 kt METAR EHGG 252025Z AUTO 05005KT 6000 BKN026/// BKN030/// 03/03 Q1002 TEMPO 4000 BR
20:55
M
2 °C 10 km+ 2,900 ft 070° 070° 3 kt METAR EHGG 251955Z AUTO 07003KT 9999 SCT026 BKN029 02/02 Q1002 NOSIG
20:25
V
2 °C 10 km+ - 060° 060° 4 kt METAR EHGG 251925Z AUTO 06004KT 9999 NSC 02/02 Q1001 NOSIG
19:55
V
3 °C 10 km+ - 070° 070° 4 kt METAR EHGG 251855Z AUTO 07004KT 9999 NSC 03/03 Q1001 NOSIG
19:25
M
3 °C 6 km - 060° 060° 4 kt METAR EHGG 251825Z AUTO 06004KT 6000 NSC 03/03 Q1001 NOSIG
18:55
V
4 °C 10 km+ - 060° 060° 3 kt METAR EHGG 251755Z AUTO 06003KT 9999 NSC 04/04 Q1001 NOSIG
18:25
V
5 °C 10 km+ - 050° 050° 2 kt METAR EHGG 251725Z AUTO 05002KT 9999 NSC 05/04 Q1001 NOSIG
17:55
V
5 °C 10 km+ 4,500 ft Var Var 1 kt METAR EHGG 251655Z AUTO VRB01KT 9999 BKN045/// 05/04 Q1001 NOSIG
17:25
V
6 °C 10 km+ 4,400 ft Var Var 1 kt METAR EHGG 251625Z AUTO VRB01KT 9999 BKN044/// 06/04 Q1000 NOSIG
16:55
V
6 °C 10 km+ 3,600 ft 130° 130° 4 kt METAR EHGG 251555Z AUTO 13004KT 090V180 9999 -RA BKN036/// OVC041/// 06/04 Q1000 REDZRA NOSIG
16:25
V
6 °C 10 km+ 3,400 ft 210° 210° 7 kt METAR EHGG 251525Z AUTO 21007KT 9999 -RA FEW030/// BKN034/// BKN039/// 06/04 Q1000 REDZUPRA NOSIG
15:55
M
7 °C 10 km+ 1,600 ft 220° 220° 8 kt METAR EHGG 251455Z AUTO 22008KT 200V270 9999 OVC016 07/04 Q1000 TEMPO 7000 -SHRA FEW015TCU
15:25
M
8 °C 10 km+ 2,000 ft 250° 250° 4 kt METAR EHGG 251425Z AUTO 25004KT 200V010 9999 SCT016/// BKN020/// BKN023/// 08/04 Q1000 TEMPO 7000 -SHRA FEW015TCU
14:55
M
8 °C 10 km+ 2,000 ft 220° 220° 6 kt METAR EHGG 251355Z AUTO 22006KT 180V320 9999 SCT015 BKN020 BKN037 08/05 Q1000 TEMPO 7000 -SHRA FEW015TCU
14:25
M
7 °C 10 km+ 2,900 ft 200° 200° 7 kt METAR EHGG 251325Z AUTO 20007KT 9999 FEW016/// SCT025/// BKN029/// 07/04 Q1000 TEMPO 7000 -SHRA FEW015TCU
13:55
M
8 °C 10 km+ 3,000 ft 210° 210° 8 kt METAR EHGG 251255Z AUTO 21008KT 170V250 9999 FEW019/// SCT026/// BKN030/// 08/04 Q1000 TEMPO 7000 -SHRA FEW015TCU
13:25
M
7 °C 10 km+ 3,000 ft 210° 210° 8 kt METAR EHGG 251225Z AUTO 21008KT 9999 BKN030/// BKN034/// 07/04 Q1000 NOSIG
12:55
M
8 °C 10 km+ 2,700 ft 210° 210° 10 kt METAR EHGG 251155Z AUTO 21010KT 170V250 9999 SCT012/// SCT017/// BKN027/// 08/05 Q1000 NOSIG
12:25
M
7 °C 10 km+ 1,300 ft 210° 210° 9 kt METAR EHGG 251125Z AUTO 21009KT 9999 SCT011/// BKN013/// OVC017/// 07/05 Q1000 BECMG SCT014 BKN040 TEMPO 7000 -RA -SHRA FEW015TCU BKN016
11:55
M
6 °C 10 km+ 1,000 ft 200° 200° 8 kt METAR EHGG 251055Z AUTO 20008KT 180V240 9999 BKN010 OVC013 06/04 Q1000 BECMG SCT014 BKN040 TEMPO 7000 -SHRA FEW015TCU
11:25
M
6 °C 10 km+ 1,200 ft 200° 200° 9 kt METAR EHGG 251025Z AUTO 20009KT 170V230 9999 FEW008 SCT009 BKN012 06/05 Q1000 BECMG SCT008 BKN030 TEMPO 7000 -SHRA FEW015TCU
10:55
I
6 °C 10 km+ 800 ft 200° 200° 9 kt METAR EHGG 250955Z AUTO 20009KT 170V240 9999 FEW006/// BKN008/// BKN010/// 06/05 Q1000 BECMG SCT008 BKN030
10:25
I
6 °C 10 km+ 700 ft 200° 200° 8 kt METAR EHGG 250925Z AUTO 20008KT 160V230 9999 SCT006 BKN007 BKN009 06/05 Q1000 BECMG SCT008 BKN030
09:55
I
5 °C 10 km+ 700 ft 190° 190° 7 kt METAR EHGG 250855Z AUTO 19007KT 160V220 9999 SCT006/// BKN007/// OVC008/// 05/04 Q1000 BECMG BKN012
09:25
M
5 °C 10 km+ 1,000 ft 190° 190° 7 kt METAR EHGG 250825Z AUTO 19007KT 9999 SCT008/// OVC010/// 05/04 Q1000 TEMPO 7000 -DZRA BKN009
08:55
M
5 °C 10 km+ 1,100 ft 190° 190° 7 kt METAR EHGG 250755Z AUTO 19007KT 160V220 9999 FEW009/// BKN011/// BKN014/// 05/04 Q0999 TEMPO 7000 -DZRA BKN009
08:25
M
5 °C 10 km+ 1,600 ft 190° 190° 7 kt METAR EHGG 250725Z AUTO 19007KT 9999 FEW007/// OVC016/// 05/04 Q0999 BECMG BKN014 TEMPO 7000 -DZRA BKN009
07:55
M
5 °C 10 km+ 1,300 ft 180° 180° 6 kt METAR EHGG 250655Z AUTO 18006KT 9999 FEW007 SCT009 BKN013 05/04 Q0999 TEMPO 7000 -DZRA BKN009
07:25
M
5 °C 10 km+ 1,200 ft 180° 180° 6 kt METAR EHGG 250625Z AUTO 18006KT 150V210 9999 FEW007/// BKN012/// OVC015/// 05/03 Q0999 TEMPO 7000 -DZRA BKN009
06:55
M
4 °C 10 km+ 1,800 ft 170° 170° 7 kt METAR EHGG 250555Z AUTO 17007KT 130V200 9999 FEW008/// SCT010/// OVC018/// 04/03 Q0999 REDZ TEMPO 7000 -DZRA BKN009